createdAt,value
2018-06-21T00:00:48.856Z,1009.33
2018-06-21T00:01:58.816Z,1009.36
2018-06-21T00:03:08.782Z,1009.37
2018-06-21T00:04:18.233Z,1009.33
2018-06-21T00:05:28.210Z,1009.36
2018-06-21T00:06:37.919Z,1009.37
2018-06-21T00:07:47.885Z,1009.31
2018-06-21T00:08:57.601Z,1009.26
2018-06-21T00:10:07.574Z,1009.25
2018-06-21T00:11:17.542Z,1009.24
2018-06-21T00:12:27.255Z,1009.26
2018-06-21T00:13:36.977Z,1009.25
2018-06-21T00:14:46.961Z,1009.23
2018-06-21T00:15:56.680Z,1009.22
2018-06-21T00:17:06.644Z,1009.18
2018-06-21T00:18:16.368Z,1009.14
2018-06-21T00:19:26.127Z,1009.12
2018-06-21T00:20:35.845Z,1009.13
2018-06-21T00:21:45.806Z,1009.09
2018-06-21T00:22:55.791Z,1009.09
2018-06-21T00:24:05.793Z,1009.05
2018-06-21T00:25:15.771Z,1009.01
2018-06-21T00:26:25.747Z,1009.03
2018-06-21T00:27:35.722Z,1009
2018-06-21T00:28:45.171Z,1009
2018-06-21T00:29:54.895Z,1008.95
2018-06-21T00:31:04.881Z,1008.99
2018-06-21T00:32:14.860Z,1009
2018-06-21T00:33:24.566Z,1008.97
2018-06-21T00:34:34.517Z,1008.95
2018-06-21T00:35:44.502Z,1008.93
2018-06-21T00:36:54.475Z,1008.91
2018-06-21T00:38:04.460Z,1008.91
2018-06-21T00:39:14.170Z,1008.86
2018-06-21T00:40:24.139Z,1008.85
2018-06-21T00:41:34.101Z,1008.83
2018-06-21T00:42:44.072Z,1008.87
2018-06-21T00:43:54.045Z,1008.8
2018-06-21T00:45:04.002Z,1008.85
2018-06-21T00:46:13.964Z,1008.82
2018-06-21T00:47:23.933Z,1008.78
2018-06-21T00:48:33.655Z,1008.78
2018-06-21T00:49:43.621Z,1008.76
2018-06-21T00:50:53.333Z,1008.73
2018-06-21T00:52:03.035Z,1008.78
2018-06-21T00:53:12.752Z,1008.73
2018-06-21T00:54:22.719Z,1008.74
2018-06-21T00:55:32.680Z,1008.71
2018-06-21T00:56:42.641Z,1008.72
2018-06-21T00:57:52.355Z,1008.69
2018-06-21T00:59:02.319Z,1008.64
2018-06-21T01:00:12.029Z,1008.63
2018-06-21T01:01:21.733Z,1008.59
2018-06-21T01:02:31.454Z,1008.56
2018-06-21T01:03:41.169Z,1008.56
2018-06-21T01:04:51.180Z,1008.52
2018-06-21T01:06:00.891Z,1008.56
2018-06-21T01:07:10.857Z,1008.55
2018-06-21T01:08:20.826Z,1008.56
2018-06-21T01:09:30.532Z,1008.56
2018-06-21T01:10:40.490Z,1008.53
2018-06-21T01:11:50.445Z,1008.59
2018-06-21T01:13:00.161Z,1008.55
2018-06-21T01:14:09.860Z,1008.55
2018-06-21T01:15:19.815Z,1008.53
2018-06-21T01:16:29.777Z,1008.5
2018-06-21T01:17:39.488Z,1008.52
2018-06-21T01:18:48.936Z,1008.52
2018-06-21T01:19:58.645Z,1008.47
2018-06-21T01:21:08.616Z,1008.46
2018-06-21T01:22:18.573Z,1008.44
2018-06-21T01:23:28.024Z,1008.38
2018-06-21T01:24:37.987Z,1008.37
2018-06-21T01:25:47.956Z,1008.36
2018-06-21T01:26:57.665Z,1008.35
2018-06-21T01:28:07.649Z,1008.35
2018-06-21T01:29:17.094Z,1008.32
2018-06-21T01:30:27.067Z,1008.27
2018-06-21T01:31:37.039Z,1008.23
2018-06-21T01:32:46.763Z,1008.25
2018-06-21T01:33:56.467Z,1008.25
2018-06-21T01:35:06.173Z,1008.25
2018-06-21T01:36:16.140Z,1008.28
2018-06-21T01:37:26.109Z,1008.3
2018-06-21T01:38:36.073Z,1008.27
2018-06-21T01:39:45.278Z,1008.29
2018-06-21T01:40:54.988Z,1008.28
2018-06-21T01:42:04.965Z,1008.22
2018-06-21T01:43:14.667Z,1008.24
2018-06-21T01:44:24.632Z,1008.24
2018-06-21T01:45:34.596Z,1008.21
2018-06-21T01:46:44.638Z,1008.2
2018-06-21T01:47:54.603Z,1008.15
2018-06-21T01:49:04.569Z,1008.15
2018-06-21T01:50:14.540Z,1008.16
2018-06-21T01:51:24.507Z,1008.12
2018-06-21T01:52:34.473Z,1008.09
2018-06-21T01:53:43.933Z,1008.09
2018-06-21T01:54:53.899Z,1008.08
2018-06-21T01:56:03.859Z,1008.06
2018-06-21T01:57:13.815Z,1008.01
2018-06-21T01:58:23.776Z,1008.03
2018-06-21T01:59:33.482Z,1007.99
2018-06-21T02:00:43.449Z,1007.97
2018-06-21T02:01:53.433Z,1007.98
2018-06-21T02:03:03.399Z,1007.94
2018-06-21T02:04:13.357Z,1007.99
2018-06-21T02:05:23.057Z,1007.93
2018-06-21T02:06:32.767Z,1007.97
2018-06-21T02:07:42.729Z,1007.9
2018-06-21T02:08:52.709Z,1007.94
2018-06-21T02:10:02.676Z,1007.94
2018-06-21T02:11:12.640Z,1007.92
2018-06-21T02:12:22.610Z,1007.9
2018-06-21T02:13:32.566Z,1007.9
2018-06-21T02:14:42.021Z,1007.92
2018-06-21T02:15:51.729Z,1007.9
2018-06-21T02:17:01.691Z,1007.89
2018-06-21T02:18:11.657Z,1007.88
2018-06-21T02:19:21.620Z,1007.88
2018-06-21T02:20:31.335Z,1007.89
2018-06-21T02:21:41.291Z,1007.85
2018-06-21T02:22:51.006Z,1007.89
2018-06-21T02:24:01.030Z,1007.86
2018-06-21T02:25:10.989Z,1007.84
2018-06-21T02:26:20.965Z,1007.83
2018-06-21T02:27:30.936Z,1007.83
2018-06-21T02:28:40.893Z,1007.84
2018-06-21T02:29:50.869Z,1007.83
2018-06-21T02:31:00.582Z,1007.83
2018-06-21T02:32:10.285Z,1007.81
2018-06-21T02:33:20.261Z,1007.81
2018-06-21T02:34:30.042Z,1007.78
2018-06-21T02:35:40.021Z,1007.8
2018-06-21T02:36:49.748Z,1007.77
2018-06-21T02:37:59.727Z,1007.7
2018-06-21T02:39:09.190Z,1007.68
2018-06-21T02:40:19.182Z,1007.69
2018-06-21T02:41:29.170Z,1007.66
2018-06-21T02:42:38.899Z,1007.66
2018-06-21T02:43:48.870Z,1007.64
2018-06-21T02:44:58.840Z,1007.65
2018-06-21T02:46:08.827Z,1007.66
2018-06-21T02:47:18.798Z,1007.64
2018-06-21T02:48:28.536Z,1007.59
2018-06-21T02:49:38.509Z,1007.57
2018-06-21T02:50:48.482Z,1007.55
2018-06-21T02:51:58.451Z,1007.53
2018-06-21T02:53:08.162Z,1007.53
2018-06-21T02:54:17.626Z,1007.53
2018-06-21T02:55:27.597Z,1007.55
2018-06-21T02:56:37.574Z,1007.56
2018-06-21T02:57:47.567Z,1007.53
2018-06-21T02:58:57.537Z,1007.51
2018-06-21T03:00:07.287Z,1007.51
2018-06-21T03:01:17.015Z,1007.48
2018-06-21T03:02:26.983Z,1007.48
2018-06-21T03:03:36.957Z,1007.46
2018-06-21T03:04:46.670Z,1007.42
2018-06-21T03:05:56.378Z,1007.38
2018-06-21T03:07:06.353Z,1007.36
2018-06-21T03:08:16.354Z,1007.39
2018-06-21T03:09:26.318Z,1007.31
2018-06-21T03:10:35.522Z,1007.23
2018-06-21T03:11:45.509Z,1007.33
2018-06-21T03:12:55.506Z,1007.25
2018-06-21T03:14:05.474Z,1007.24
2018-06-21T03:15:15.465Z,1007.25
2018-06-21T03:16:25.430Z,1007.21
2018-06-21T03:17:35.414Z,1007.25
2018-06-21T03:18:45.123Z,1007.2
2018-06-21T03:19:54.843Z,1007.16
2018-06-21T03:21:04.834Z,1007.23
2018-06-21T03:22:14.549Z,1007.21
2018-06-21T03:23:24.525Z,1007.19
2018-06-21T03:24:34.221Z,1007.23
2018-06-21T03:25:44.183Z,1007.22
2018-06-21T03:26:54.149Z,1007.22
2018-06-21T03:28:03.858Z,1007.16
2018-06-21T03:29:13.816Z,1007.17
2018-06-21T03:30:23.775Z,1007.11
2018-06-21T03:31:33.512Z,1007.09
2018-06-21T03:32:43.244Z,1007.15
2018-06-21T03:33:53.208Z,1007.11
2018-06-21T03:35:03.177Z,1007.07
2018-06-21T03:36:13.135Z,1007.05
2018-06-21T03:37:22.847Z,1007.08
2018-06-21T03:38:32.292Z,1007.04
2018-06-21T03:39:42.274Z,1007.09
2018-06-21T03:40:52.248Z,1007.05
2018-06-21T03:42:02.210Z,1007.02
2018-06-21T03:43:11.918Z,1007.02
2018-06-21T03:44:21.650Z,1007.01
2018-06-21T03:45:31.125Z,1006.95
2018-06-21T03:46:41.139Z,1006.95
2018-06-21T03:47:50.841Z,1006.93
2018-06-21T03:49:00.887Z,1006.95
2018-06-21T03:50:10.841Z,1006.93
2018-06-21T03:51:20.554Z,1006.88
2018-06-21T03:52:30.261Z,1006.9
2018-06-21T03:53:40.242Z,1006.9
2018-06-21T03:54:49.964Z,1006.82
2018-06-21T03:55:59.929Z,1006.88
2018-06-21T03:57:09.904Z,1006.86
2018-06-21T03:58:19.862Z,1006.89
2018-06-21T03:59:29.828Z,1006.91
2018-06-21T04:00:39.583Z,1006.85
2018-06-21T04:01:48.786Z,1006.83
2018-06-21T04:02:58.752Z,1006.76
2018-06-21T04:04:08.709Z,1006.81
2018-06-21T04:05:18.705Z,1006.83
2018-06-21T04:06:29.095Z,1006.9
2018-06-21T04:07:39.050Z,1006.79
2018-06-21T04:08:48.753Z,1006.78
2018-06-21T04:09:58.734Z,1006.78
2018-06-21T04:11:08.453Z,1006.75
2018-06-21T04:12:18.421Z,1006.7
2018-06-21T04:13:28.396Z,1006.75
2018-06-21T04:14:38.096Z,1006.78
2018-06-21T04:15:47.815Z,1006.73
2018-06-21T04:16:57.807Z,1006.75
2018-06-21T04:18:07.780Z,1006.72
2018-06-21T04:19:17.748Z,1006.67
2018-06-21T04:20:27.459Z,1006.74
2018-06-21T04:21:37.171Z,1006.7
2018-06-21T04:22:47.138Z,1006.7
2018-06-21T04:23:56.590Z,1006.7
2018-06-21T04:25:06.295Z,1006.72
2018-06-21T04:26:16.034Z,1006.69
2018-06-21T04:27:26.019Z,1006.64
2018-06-21T04:28:36.042Z,1006.65
2018-06-21T04:29:45.747Z,1006.7
2018-06-21T04:30:55.468Z,1006.68
2018-06-21T04:32:05.443Z,1006.65
2018-06-21T04:33:15.243Z,1006.63
2018-06-21T04:34:25.213Z,1006.65
2018-06-21T04:35:34.923Z,1006.67
2018-06-21T04:36:44.891Z,1006.61
2018-06-21T04:37:54.959Z,1006.6
2018-06-21T04:39:04.683Z,1006.62
2018-06-21T04:40:14.403Z,1006.64
2018-06-21T04:41:24.380Z,1006.59
2018-06-21T04:42:34.347Z,1006.61
2018-06-21T04:43:44.294Z,1006.59
2018-06-21T04:44:54.025Z,1006.59
2018-06-21T04:46:03.986Z,1006.59
2018-06-21T04:47:13.968Z,1006.59
2018-06-21T04:48:23.928Z,1006.59
2018-06-21T04:49:33.651Z,1006.61
2018-06-21T04:50:43.120Z,1006.6
2018-06-21T04:51:52.578Z,1006.55
2018-06-21T04:53:02.025Z,1006.53
2018-06-21T04:54:11.994Z,1006.54
2018-06-21T04:55:21.704Z,1006.55
2018-06-21T04:56:31.674Z,1006.52
2018-06-21T04:57:41.146Z,1006.52
2018-06-21T04:58:50.853Z,1006.49
2018-06-21T05:00:00.900Z,1006.5
2018-06-21T05:01:11.414Z,1006.48
2018-06-21T05:02:21.396Z,1006.44
2018-06-21T05:03:31.372Z,1006.4
2018-06-21T05:04:41.076Z,1006.41
2018-06-21T05:05:51.059Z,1006.44
2018-06-21T05:07:01.040Z,1006.42
2018-06-21T05:08:11.013Z,1006.4
2018-06-21T05:09:21.001Z,1006.41
2018-06-21T05:10:30.706Z,1006.38
2018-06-21T05:11:40.677Z,1006.4
2018-06-21T05:12:50.649Z,1006.33
2018-06-21T05:14:00.628Z,1006.33
2018-06-21T05:15:10.609Z,1006.29
2018-06-21T05:16:20.326Z,1006.28
2018-06-21T05:17:30.292Z,1006.27
2018-06-21T05:18:40.270Z,1006.27
2018-06-21T05:19:50.242Z,1006.23
2018-06-21T05:21:00.283Z,1006.2
2018-06-21T05:22:09.990Z,1006.19
2018-06-21T05:23:19.699Z,1006.21
2018-06-21T05:24:29.736Z,1006.17
2018-06-21T05:25:39.188Z,1006.16
2018-06-21T05:26:49.181Z,1006.16
2018-06-21T05:27:58.898Z,1006.13
2018-06-21T05:29:08.349Z,1006.14
2018-06-21T05:30:18.393Z,1006.12
2018-06-21T05:31:28.110Z,1006.11
2018-06-21T05:32:38.076Z,1006.14
2018-06-21T05:33:48.060Z,1006.11
2018-06-21T05:34:57.788Z,1006.16
2018-06-21T05:36:07.755Z,1006.2
2018-06-21T05:37:17.479Z,1006.17
2018-06-21T05:38:27.633Z,1006.12
2018-06-21T05:39:36.835Z,1006.1
2018-06-21T05:40:46.799Z,1006.14
2018-06-21T05:41:56.762Z,1006.15
2018-06-21T05:43:06.747Z,1006.16
2018-06-21T05:44:16.504Z,1006.18
2018-06-21T05:45:26.526Z,1006.22
2018-06-21T05:46:36.543Z,1006.12
2018-06-21T05:47:46.542Z,1006.11
2018-06-21T05:48:56.525Z,1006.09
2018-06-21T05:50:06.592Z,1006.1
2018-06-21T05:51:16.546Z,1006.06
2018-06-21T05:52:26.319Z,1006.05
2018-06-21T05:53:36.047Z,1005.99
2018-06-21T05:54:46.021Z,1006
2018-06-21T05:55:55.987Z,1005.94
2018-06-21T05:57:05.962Z,1005.96
2018-06-21T05:58:15.963Z,1005.96
2018-06-21T05:59:25.945Z,1005.96
2018-06-21T06:00:36.005Z,1005.97
2018-06-21T06:01:46.023Z,1005.95
2018-06-21T06:02:55.818Z,1006
2018-06-21T06:04:05.531Z,1005.88
2018-06-21T06:05:15.516Z,1005.86
2018-06-21T06:06:25.493Z,1005.87
2018-06-21T06:07:35.225Z,1005.86
2018-06-21T06:08:45.204Z,1005.81
2018-06-21T06:09:55.236Z,1005.84
2018-06-21T06:11:05.138Z,1005.74
2018-06-21T06:12:15.130Z,1005.7
2018-06-21T06:13:25.154Z,1005.69
2018-06-21T06:14:35.149Z,1005.69
2018-06-21T06:15:45.138Z,1005.69
2018-06-21T06:16:55.137Z,1005.72
2018-06-21T06:18:05.133Z,1005.72
2018-06-21T06:19:14.884Z,1005.7
2018-06-21T06:20:24.909Z,1005.7
2018-06-21T06:21:34.887Z,1005.66
2018-06-21T06:22:44.600Z,1005.69
2018-06-21T06:23:54.598Z,1005.74
2018-06-21T06:25:04.577Z,1005.68
2018-06-21T06:26:14.331Z,1005.67
2018-06-21T06:27:24.312Z,1005.63
2018-06-21T06:28:34.322Z,1005.66
2018-06-21T06:29:44.619Z,1005.6
2018-06-21T06:30:54.606Z,1005.59
2018-06-21T06:32:04.571Z,1005.61
2018-06-21T06:33:14.554Z,1005.55
2018-06-21T06:34:24.550Z,1005.57
2018-06-21T06:35:34.272Z,1005.56
2018-06-21T06:36:44.285Z,1005.61
2018-06-21T06:37:53.776Z,1005.54
2018-06-21T06:39:03.798Z,1005.53
2018-06-21T06:40:13.777Z,1005.52
2018-06-21T06:41:23.934Z,1005.49
2018-06-21T06:42:33.958Z,1005.4
2018-06-21T06:43:43.936Z,1005.47
2018-06-21T06:44:53.920Z,1005.43
2018-06-21T06:46:03.969Z,1005.36
2018-06-21T06:47:14.185Z,1005.4
2018-06-21T06:48:24.177Z,1005.35
2018-06-21T06:49:34.188Z,1005.38
2018-06-21T06:50:44.199Z,1005.4
2018-06-21T06:51:53.973Z,1005.38
2018-06-21T06:53:03.931Z,1005.35
2018-06-21T06:54:13.660Z,1005.34
2018-06-21T06:55:23.489Z,1005.33
2018-06-21T06:56:33.579Z,1005.29
2018-06-21T06:57:43.305Z,1005.27
2018-06-21T06:58:53.282Z,1005.25
2018-06-21T07:00:03.031Z,1005.2
2018-06-21T07:01:13.037Z,1005.2
2018-06-21T07:02:22.774Z,1005.09
2018-06-21T07:03:32.829Z,1005.07
2018-06-21T07:04:42.821Z,1005.13
2018-06-21T07:05:52.888Z,1005.15
2018-06-21T07:07:02.624Z,1005.14
2018-06-21T07:08:12.694Z,1004.98
2018-06-21T07:09:22.956Z,1005.1
2018-06-21T07:10:32.695Z,1005.01
2018-06-21T07:11:42.679Z,1004.97
2018-06-21T07:12:52.161Z,1004.98
2018-06-21T07:14:02.166Z,1004.91
2018-06-21T07:15:12.055Z,1004.92
2018-06-21T07:16:22.023Z,1004.87
2018-06-21T07:17:32.009Z,1004.85
2018-06-21T07:18:41.752Z,1004.82
2018-06-21T07:19:51.722Z,1004.77
2018-06-21T07:21:01.703Z,1004.74
2018-06-21T07:22:11.744Z,1004.68
2018-06-21T07:23:21.472Z,1004.74
2018-06-21T07:24:31.466Z,1004.71
2018-06-21T07:25:41.202Z,1004.64
2018-06-21T07:26:51.187Z,1004.66
2018-06-21T07:28:00.970Z,1004.57
2018-06-21T07:29:10.968Z,1004.59
2018-06-21T07:30:20.951Z,1004.49
2018-06-21T07:31:30.980Z,1004.46
2018-06-21T07:32:40.988Z,1004.49
2018-06-21T07:33:50.971Z,1004.45
2018-06-21T07:35:00.161Z,1004.47
2018-06-21T07:36:10.136Z,1004.49
2018-06-21T07:37:20.175Z,1004.43
2018-06-21T07:38:30.141Z,1004.43
2018-06-21T07:39:40.114Z,1004.41
2018-06-21T07:40:49.869Z,1004.34
2018-06-21T07:41:59.863Z,1004.33
2018-06-21T07:43:09.835Z,1004.38
2018-06-21T07:44:19.578Z,1004.34
2018-06-21T07:45:29.565Z,1004.23
2018-06-21T07:46:39.310Z,1004.22
2018-06-21T07:47:49.099Z,1004.21
2018-06-21T07:48:58.814Z,1004.21
2018-06-21T07:50:08.539Z,1004.21
2018-06-21T07:51:18.548Z,1004.14
2018-06-21T07:52:28.023Z,1004.09
2018-06-21T07:53:38.005Z,1004.08
2018-06-21T07:54:47.856Z,1004.06
2018-06-21T07:55:57.884Z,1004.05
2018-06-21T07:57:07.875Z,1004.14
2018-06-21T07:58:17.902Z,1004.06
2018-06-21T07:59:27.628Z,1004.05
2018-06-21T08:00:37.714Z,1003.95
2018-06-21T08:01:47.744Z,1003.87
2018-06-21T08:02:57.739Z,1003.82
2018-06-21T08:04:07.463Z,1003.82
2018-06-21T08:05:17.464Z,1003.77
2018-06-21T08:06:27.443Z,1003.78
2018-06-21T08:07:37.440Z,1003.78
2018-06-21T08:08:47.179Z,1003.8
2018-06-21T08:09:56.943Z,1003.78
2018-06-21T08:11:06.674Z,1003.73
2018-06-21T08:12:16.464Z,1003.74
2018-06-21T08:13:26.660Z,1003.72
2018-06-21T08:14:36.648Z,1003.68
2018-06-21T08:15:46.376Z,1003.69
2018-06-21T08:16:56.141Z,1003.79
2018-06-21T08:18:06.138Z,1003.71
2018-06-21T08:19:15.875Z,1003.66
2018-06-21T08:20:25.230Z,1003.62
2018-06-21T08:21:35.022Z,1003.56
2018-06-21T08:22:45.047Z,1003.54
2018-06-21T08:23:55.056Z,1003.57
2018-06-21T08:25:05.078Z,1003.55
2018-06-21T08:26:15.054Z,1003.58
2018-06-21T08:27:24.800Z,1003.55
2018-06-21T08:28:34.530Z,1003.49
2018-06-21T08:29:44.749Z,1003.58
2018-06-21T08:30:54.758Z,1003.54
2018-06-21T08:32:04.491Z,1003.54
2018-06-21T08:33:14.675Z,1003.51
2018-06-21T08:34:24.676Z,1003.52
2018-06-21T08:35:34.666Z,1003.43
2018-06-21T08:36:44.675Z,1003.42
2018-06-21T08:37:54.698Z,1003.4
2018-06-21T08:39:04.721Z,1003.35
2018-06-21T08:40:14.717Z,1003.29
2018-06-21T08:41:24.454Z,1003.29
2018-06-21T08:42:34.182Z,1003.28
2018-06-21T08:43:44.172Z,1003.22
2018-06-21T08:44:53.638Z,1003.26
2018-06-21T08:46:03.658Z,1003.2
2018-06-21T08:47:14.246Z,1003.28
2018-06-21T08:48:24.284Z,1003.23
2018-06-21T08:49:34.024Z,1003.15
2018-06-21T08:50:43.244Z,1003.29
2018-06-21T08:51:53.293Z,1003.18
2018-06-21T08:53:03.240Z,1003.01
2018-06-21T08:54:12.969Z,1003.13
2018-06-21T08:55:22.705Z,1003.12
2018-06-21T08:56:32.713Z,1003.19
2018-06-21T08:57:42.437Z,1003.09
2018-06-21T08:58:52.442Z,1003.13
2018-06-21T09:00:02.197Z,1003.11
2018-06-21T09:01:12.229Z,1003.09
2018-06-21T09:02:22.218Z,1003.07
2018-06-21T09:03:32.230Z,1003.07
2018-06-21T09:04:42.316Z,1003.08
2018-06-21T09:05:52.307Z,1003.02
2018-06-21T09:07:02.038Z,1003.03
2018-06-21T09:08:12.044Z,1003.06
2018-06-21T09:09:21.794Z,1003.02
2018-06-21T09:10:31.793Z,1002.99
2018-06-21T09:11:41.788Z,1002.91
2018-06-21T09:12:51.794Z,1002.88
2018-06-21T09:14:01.794Z,1002.84
2018-06-21T09:15:11.784Z,1002.87
2018-06-21T09:16:22.019Z,1002.83
2018-06-21T09:17:31.826Z,1002.8
2018-06-21T09:18:41.838Z,1002.79
2018-06-21T09:19:51.638Z,1002.78
2018-06-21T09:21:01.434Z,1002.8
2018-06-21T09:22:11.577Z,1002.7
2018-06-21T09:23:21.547Z,1002.76
2018-06-21T09:24:31.287Z,1002.65
2018-06-21T09:25:40.783Z,1002.82
2018-06-21T09:26:50.765Z,1002.62
2018-06-21T09:28:00.234Z,1002.66
2018-06-21T09:29:10.220Z,1002.58
2018-06-21T09:30:19.931Z,1002.5
2018-06-21T09:31:29.908Z,1002.62
2018-06-21T09:32:39.896Z,1002.54
2018-06-21T09:33:49.934Z,1002.49
2018-06-21T09:34:59.917Z,1002.46
2018-06-21T09:36:09.904Z,1002.47
2018-06-21T09:37:19.926Z,1002.46
2018-06-21T09:38:29.920Z,1002.4
2018-06-21T09:39:39.912Z,1002.37
2018-06-21T09:40:49.901Z,1002.42
2018-06-21T09:41:59.685Z,1002.51
2018-06-21T09:43:09.879Z,1002.38
2018-06-21T09:44:19.855Z,1002.55
2018-06-21T09:45:29.831Z,1002.41
2018-06-21T09:46:39.815Z,1002.39
2018-06-21T09:47:49.808Z,1002.29
2018-06-21T09:48:59.783Z,1002.34
2018-06-21T09:50:09.520Z,1002.36
2018-06-21T09:51:19.270Z,1002.26
2018-06-21T09:52:29.312Z,1002.22
2018-06-21T09:53:39.786Z,1002.24
2018-06-21T09:54:49.771Z,1002.27
2018-06-21T09:55:59.766Z,1002.21
2018-06-21T09:57:09.757Z,1002.37
2018-06-21T09:58:19.509Z,1002.27
2018-06-21T09:59:29.259Z,1002.24
2018-06-21T10:00:38.997Z,1001.99
2018-06-21T10:01:49.034Z,1002.06
2018-06-21T10:02:59.031Z,1002.13
2018-06-21T10:04:08.498Z,1002.03
2018-06-21T10:05:17.983Z,1002.17
2018-06-21T10:06:28.021Z,1002.39
2018-06-21T10:07:38.017Z,1002.1
2018-06-21T10:08:47.999Z,1002.1
2018-06-21T10:09:57.752Z,1002.01
2018-06-21T10:11:07.477Z,1001.99
2018-06-21T10:12:17.468Z,1001.98
2018-06-21T10:13:27.449Z,1001.95
2018-06-21T10:14:36.928Z,1002.17
2018-06-21T10:15:46.686Z,1002.15
2018-06-21T10:16:56.596Z,1001.92
2018-06-21T10:18:06.589Z,1001.98
2018-06-21T10:19:16.626Z,1002.1
2018-06-21T10:20:26.620Z,1001.85
2018-06-21T10:21:36.613Z,1001.9
2018-06-21T10:22:46.330Z,1001.98
2018-06-21T10:23:56.388Z,1001.85
2018-06-21T10:25:06.381Z,1001.82
2018-06-21T10:26:15.589Z,1001.78
2018-06-21T10:27:25.604Z,1002.19
2018-06-21T10:28:35.332Z,1001.83
2018-06-21T10:29:45.048Z,1001.81
2018-06-21T10:30:55.032Z,1002.11
2018-06-21T10:32:05.020Z,1001.93
2018-06-21T10:33:14.746Z,1001.64
2018-06-21T10:34:24.727Z,1001.69
2018-06-21T10:35:34.456Z,1001.77
2018-06-21T10:36:44.436Z,1001.86
2018-06-21T10:37:54.436Z,1001.66
2018-06-21T10:39:04.428Z,1001.8
2018-06-21T10:40:14.158Z,1001.79
2018-06-21T10:41:23.884Z,1001.94
2018-06-21T10:42:33.946Z,1001.72
2018-06-21T10:43:44.099Z,1001.88
2018-06-21T10:44:54.078Z,1001.96
2018-06-21T10:46:04.060Z,1002.12
2018-06-21T10:47:14.049Z,1002.58
2018-06-21T10:48:23.782Z,1002.64
2018-06-21T10:49:33.765Z,1002.45
2018-06-21T10:50:43.741Z,1002.76
2018-06-21T10:51:53.711Z,1002.47
2018-06-21T10:53:03.692Z,1002.71
2018-06-21T10:54:13.664Z,1002.65
2018-06-21T10:55:23.638Z,1003.1
2018-06-21T10:56:33.100Z,1003.33
2018-06-21T10:57:43.104Z,1003.39
2018-06-21T10:58:53.085Z,1003.95
2018-06-21T11:00:02.819Z,1004
2018-06-21T11:01:12.805Z,1003.52
2018-06-21T11:02:22.775Z,1003.6
2018-06-21T11:03:32.762Z,1003.59
2018-06-21T11:04:42.752Z,1003.63
2018-06-21T11:05:52.736Z,1003.99
2018-06-21T11:07:02.482Z,1004.22
2018-06-21T11:08:12.221Z,1004.12
2018-06-21T11:09:22.199Z,1004.53
2018-06-21T11:10:31.702Z,1004.33
2018-06-21T11:11:41.165Z,1004.06
2018-06-21T11:12:51.140Z,1004.14
2018-06-21T11:14:00.613Z,1004.33
2018-06-21T11:15:10.564Z,1004.51
2018-06-21T11:16:20.043Z,1004.64
2018-06-21T11:17:29.770Z,1004.42
2018-06-21T11:18:39.756Z,1004.65
2018-06-21T11:19:49.503Z,1004.61
2018-06-21T11:20:59.504Z,1004.64
2018-06-21T11:22:09.523Z,1004.46
2018-06-21T11:23:19.509Z,1004.54
2018-06-21T11:24:29.279Z,1004.69
2018-06-21T11:25:39.270Z,1004.58
2018-06-21T11:26:49.314Z,1004.65
2018-06-21T11:27:59.352Z,1004.61
2018-06-21T11:29:09.772Z,1004.81
2018-06-21T11:30:19.569Z,1004.74
2018-06-21T11:31:29.795Z,1004.77
2018-06-21T11:32:39.528Z,1004.85
2018-06-21T11:33:49.317Z,1004.6
2018-06-21T11:34:59.294Z,1004.76
2018-06-21T11:36:09.072Z,1004.59
2018-06-21T11:37:19.084Z,1004.84
2018-06-21T11:38:29.107Z,1004.9
2018-06-21T11:39:39.096Z,1004.75
2018-06-21T11:40:49.096Z,1005.09
2018-06-21T11:41:58.864Z,1004.95
2018-06-21T11:43:08.863Z,1004.93
2018-06-21T11:44:19.070Z,1004.76
2018-06-21T11:45:28.516Z,1004.95
2018-06-21T11:46:38.508Z,1004.99
2018-06-21T11:47:48.161Z,1005.11
2018-06-21T11:48:57.887Z,1005.17
2018-06-21T11:50:07.867Z,1005.17
2018-06-21T11:51:17.342Z,1005.09
2018-06-21T11:52:27.358Z,1005.41
2018-06-21T11:53:37.106Z,1005.57
2018-06-21T11:54:46.870Z,1005.46
2018-06-21T11:55:56.633Z,1005.47
2018-06-21T11:57:06.622Z,1005.7
2018-06-21T11:58:16.633Z,1005.63
2018-06-21T11:59:26.653Z,1005.74
2018-06-21T12:00:36.415Z,1006.29
2018-06-21T12:01:46.231Z,1005.61
2018-06-21T12:02:56.223Z,1005.78
2018-06-21T12:04:05.983Z,1005.88
2018-06-21T12:05:15.704Z,1005.87
2018-06-21T12:06:25.426Z,1005.81
2018-06-21T12:07:35.408Z,1005.78
2018-06-21T12:08:45.459Z,1005.72
2018-06-21T12:09:55.723Z,1005.84
2018-06-21T12:11:05.198Z,1005.89
2018-06-21T12:12:14.704Z,1006.07
2018-06-21T12:13:24.698Z,1006.05
2018-06-21T12:14:34.682Z,1006.28
2018-06-21T12:15:44.685Z,1006.32
2018-06-21T12:16:54.659Z,1006.59
2018-06-21T12:18:04.632Z,1006.16
2018-06-21T12:19:14.366Z,1006.07
2018-06-21T12:20:24.103Z,1005.89
2018-06-21T12:21:33.826Z,1005.93
2018-06-21T12:22:43.896Z,1006.09
2018-06-21T12:23:54.032Z,1006.14
2018-06-21T12:25:04.025Z,1006.22
2018-06-21T12:26:14.029Z,1006.35
2018-06-21T12:27:24.353Z,1006.33
2018-06-21T12:28:34.342Z,1006.46
2018-06-21T12:29:44.338Z,1006.3
2018-06-21T12:30:54.048Z,1006.55
2018-06-21T12:32:04.034Z,1006.52
2018-06-21T12:33:13.916Z,1006.42
2018-06-21T12:34:23.923Z,1006.47
2018-06-21T12:35:33.920Z,1006.51
2018-06-21T12:36:43.887Z,1006.5
2018-06-21T12:37:53.585Z,1006.63
2018-06-21T12:39:03.804Z,1006.72
2018-06-21T12:40:13.835Z,1007.03
2018-06-21T12:41:23.794Z,1007.21
2018-06-21T12:42:33.789Z,1006.87
2018-06-21T12:43:43.828Z,1006.81
2018-06-21T12:44:53.647Z,1006.8
2018-06-21T12:46:03.651Z,1006.94
2018-06-21T12:47:13.654Z,1006.77
2018-06-21T12:48:23.384Z,1006.65
2018-06-21T12:49:33.390Z,1006.64
2018-06-21T12:50:43.390Z,1006.63
2018-06-21T12:51:53.375Z,1006.73
2018-06-21T12:53:03.375Z,1006.87
2018-06-21T12:54:13.118Z,1006.88
2018-06-21T12:55:22.845Z,1006.82
2018-06-21T12:56:32.565Z,1006.74
2018-06-21T12:57:42.292Z,1006.72
2018-06-21T12:58:52.289Z,1006.57
2018-06-21T13:00:02.333Z,1006.78
2018-06-21T13:01:12.061Z,1006.68
2018-06-21T13:02:21.807Z,1006.75
2018-06-21T13:03:31.791Z,1006.7
2018-06-21T13:04:41.531Z,1006.88
2018-06-21T13:05:51.497Z,1007.1
2018-06-21T13:07:01.478Z,1007.21
2018-06-21T13:08:11.488Z,1007.11
2018-06-21T13:09:21.201Z,1007.08
2018-06-21T13:10:31.182Z,1007.19
2018-06-21T13:11:41.164Z,1007.13
2018-06-21T13:12:50.889Z,1007.16
2018-06-21T13:14:00.880Z,1007.07
2018-06-21T13:15:10.861Z,1007.02
2018-06-21T13:16:20.929Z,1007.01
2018-06-21T13:17:30.924Z,1006.86
2018-06-21T13:18:40.911Z,1006.7
2018-06-21T13:19:50.893Z,1006.61
2018-06-21T13:21:00.865Z,1006.72
2018-06-21T13:22:10.617Z,1006.63
2018-06-21T13:23:20.789Z,1006.69
2018-06-21T13:24:30.769Z,1006.64
2018-06-21T13:25:40.507Z,1006.6
2018-06-21T13:26:50.480Z,1006.65
2018-06-21T13:28:00.222Z,1006.75
2018-06-21T13:29:10.219Z,1006.72
2018-06-21T13:30:20.196Z,1006.75
2018-06-21T13:31:30.184Z,1006.82
2018-06-21T13:32:40.168Z,1006.77
2018-06-21T13:33:50.154Z,1006.76
2018-06-21T13:35:00.143Z,1006.81
2018-06-21T13:36:10.151Z,1006.8
2018-06-21T13:37:20.151Z,1006.82
2018-06-21T13:38:29.856Z,1007.01
2018-06-21T13:39:39.845Z,1007.05
2018-06-21T13:40:49.819Z,1007
2018-06-21T13:41:59.535Z,1006.96
2018-06-21T13:43:09.280Z,1007.02
2018-06-21T13:44:19.267Z,1007.06
2018-06-21T13:45:29.254Z,1007.01
2018-06-21T13:46:38.985Z,1007.06
2018-06-21T13:47:48.717Z,1006.93
2018-06-21T13:48:58.698Z,1006.99
2018-06-21T13:50:08.433Z,1006.96
2018-06-21T13:51:18.197Z,1007.04
2018-06-21T13:52:28.190Z,1007.05
2018-06-21T13:53:38.197Z,1006.96
2018-06-21T13:54:47.934Z,1006.96
2018-06-21T13:55:57.945Z,1006.93
2018-06-21T13:57:07.930Z,1006.92
2018-06-21T13:58:17.908Z,1006.87
2018-06-21T13:59:27.893Z,1006.93
2018-06-21T14:00:37.961Z,1006.94
2018-06-21T14:01:47.963Z,1006.83
2018-06-21T14:02:57.962Z,1006.95
2018-06-21T14:04:07.954Z,1007
2018-06-21T14:05:17.929Z,1007.26
2018-06-21T14:06:27.659Z,1007.55
2018-06-21T14:07:37.496Z,1007.46
2018-06-21T14:08:48.317Z,1007.42